createdAt,value
2023-04-04T00:00:06.027Z,1022.05
2023-04-04T00:01:06.015Z,1022.06
2023-04-04T00:02:06.036Z,1022.06
2023-04-04T05:08:41.484Z,1021.78
2023-04-04T05:09:41.357Z,1021.81
2023-04-04T05:10:41.843Z,1021.81
2023-04-04T05:11:41.424Z,1021.81
2023-04-04T05:12:41.360Z,1021.80
2023-04-04T05:13:41.329Z,1021.79
2023-04-04T05:14:41.316Z,1021.84
2023-04-04T05:15:41.366Z,1021.81
2023-04-04T05:16:41.333Z,1021.80
2023-04-04T05:17:41.336Z,1021.80
2023-04-04T05:18:41.264Z,1021.75
2023-04-04T05:19:41.334Z,1021.72
2023-04-04T05:20:41.612Z,1021.74
2023-04-04T05:21:41.325Z,1021.76
2023-04-04T05:22:41.237Z,1021.78
2023-04-04T05:23:41.232Z,1021.73
2023-04-04T05:24:41.201Z,1021.74
2023-04-04T05:25:41.205Z,1021.72
2023-04-04T05:26:41.191Z,1021.68
2023-04-04T05:27:41.182Z,1021.72
2023-04-04T05:28:41.165Z,1021.75
2023-04-04T05:29:41.154Z,1021.79
2023-04-04T05:30:41.491Z,1021.69
2023-04-04T05:31:41.257Z,1021.72
2023-04-04T05:32:41.206Z,1021.75
2023-04-04T05:33:41.109Z,1021.73
2023-04-04T05:34:41.112Z,1021.78
2023-04-04T05:35:41.232Z,1021.75
2023-04-04T05:36:41.112Z,1021.78
2023-04-04T05:37:41.080Z,1021.78
2023-04-04T05:38:41.071Z,1021.80
2023-04-04T05:39:41.054Z,1021.81
2023-04-04T05:40:41.403Z,1021.76
2023-04-04T05:41:41.042Z,1021.80
2023-04-04T05:42:41.021Z,1021.80
2023-04-04T05:43:41.048Z,1021.78
2023-04-04T05:44:41.038Z,1021.81
2023-04-04T05:45:41.967Z,1021.86
2023-04-04T05:46:41.002Z,1021.86
2023-04-04T05:47:40.972Z,1021.85
2023-04-04T05:48:40.974Z,1021.88
2023-04-04T05:49:41.032Z,1021.83
2023-04-04T05:50:41.247Z,1021.88
2023-04-04T05:51:40.934Z,1021.86
2023-04-04T05:52:40.932Z,1021.86
2023-04-04T05:53:40.919Z,1021.83
2023-04-04T05:54:40.928Z,1021.87
2023-04-04T05:55:40.902Z,1021.89
2023-04-04T05:56:40.883Z,1021.89
2023-04-04T05:57:40.874Z,1021.86
2023-04-04T05:58:40.877Z,1021.90
2023-04-04T05:59:40.952Z,1021.90
2023-04-04T06:00:41.132Z,1021.91
2023-04-04T06:01:40.831Z,1021.91
2023-04-04T06:02:40.902Z,1021.94
2023-04-04T06:03:40.855Z,1021.93
2023-04-04T06:04:40.808Z,1021.90
2023-04-04T06:05:40.928Z,1021.97
2023-04-04T06:06:40.768Z,1022.01
2023-04-04T06:07:40.810Z,1022.01
2023-04-04T06:08:52.898Z,1022.04
2023-04-04T06:09:41.775Z,1022.06
2023-04-04T06:10:41.116Z,1022.04
2023-04-04T06:11:40.794Z,1022.05
2023-04-04T06:12:40.747Z,1022.06
2023-04-04T06:13:40.692Z,1022.05
2023-04-04T06:14:40.685Z,1022.03
2023-04-04T06:15:40.683Z,1022.08
2023-04-04T06:16:40.720Z,1022.10
2023-04-04T06:17:40.721Z,1022.05
2023-04-04T06:18:40.653Z,1022.04
2023-04-04T06:19:40.645Z,1022.05
2023-04-04T06:20:40.887Z,1022.03
2023-04-04T06:21:40.609Z,1022.05
2023-04-04T06:22:40.633Z,1022.05
2023-04-04T06:23:40.603Z,1022.07
2023-04-04T06:24:40.579Z,1022.06
2023-04-04T06:25:40.582Z,1022.05
2023-04-04T06:26:40.583Z,1021.99
2023-04-04T06:27:40.552Z,1022.00
2023-04-04T06:28:40.546Z,1021.99
2023-04-04T06:29:40.545Z,1022.04
2023-04-04T06:30:40.778Z,1022.04
2023-04-04T06:31:40.544Z,1022.00
2023-04-04T06:32:40.570Z,1021.96
2023-04-04T06:33:40.515Z,1021.98
2023-04-04T06:34:40.546Z,1022.00
2023-04-04T06:35:40.492Z,1022.00
2023-04-04T06:36:40.457Z,1021.97
2023-04-04T06:37:40.440Z,1021.94
2023-04-04T06:38:40.442Z,1021.95
2023-04-04T06:39:40.546Z,1021.95
2023-04-04T06:40:40.652Z,1021.86
2023-04-04T06:41:40.401Z,1021.86
2023-04-04T06:42:40.433Z,1021.88
2023-04-04T06:43:40.381Z,1021.90
2023-04-04T06:44:40.455Z,1021.91
2023-04-04T06:45:40.378Z,1021.91
2023-04-04T06:46:40.448Z,1021.92
2023-04-04T06:47:40.390Z,1021.89
2023-04-04T06:48:40.331Z,1021.92
2023-04-04T06:49:40.339Z,1021.91
2023-04-04T06:50:40.493Z,1021.94
2023-04-04T06:51:40.302Z,1021.97
2023-04-04T06:52:40.304Z,1022.00
2023-04-04T06:53:40.263Z,1021.97
2023-04-04T06:54:40.379Z,1022.00
2023-04-04T06:55:40.262Z,1021.97
2023-04-04T06:56:40.251Z,1021.96
2023-04-04T06:57:40.233Z,1021.94
2023-04-04T06:58:40.230Z,1021.93
2023-04-04T06:59:40.259Z,1021.96
2023-04-04T07:00:40.548Z,1021.97
2023-04-04T07:01:40.184Z,1021.97
2023-04-04T07:02:40.385Z,1021.93
2023-04-04T07:03:40.156Z,1021.94
2023-04-04T07:04:40.884Z,1021.96
2023-04-04T07:05:40.172Z,1021.98
2023-04-04T07:06:40.145Z,1021.97
2023-04-04T07:07:40.124Z,1021.99
2023-04-04T07:08:40.144Z,1022.02
2023-04-04T07:09:40.414Z,1022.00
2023-04-04T07:10:41.238Z,1021.97
2023-04-04T07:11:40.096Z,1022.01
2023-04-04T07:12:40.083Z,1022.08
2023-04-04T07:13:40.852Z,1022.09
2023-04-04T07:14:40.048Z,1022.11
2023-04-04T07:15:40.086Z,1022.10
2023-04-04T07:16:40.093Z,1022.05
2023-04-04T07:17:40.137Z,1022.10
2023-04-04T07:18:40.014Z,1022.09
2023-04-04T07:19:40.007Z,1022.10
2023-04-04T07:20:40.263Z,1022.13
2023-04-04T07:21:39.991Z,1022.05
2023-04-04T07:22:39.979Z,1022.04
2023-04-04T07:23:39.961Z,1022.10
2023-04-04T07:24:39.963Z,1022.07
2023-04-04T07:25:39.962Z,1022.12
2023-04-04T07:26:39.956Z,1022.11
2023-04-04T07:27:40.037Z,1022.18
2023-04-04T07:28:39.955Z,1022.15
2023-04-04T07:29:39.897Z,1022.09
2023-04-04T07:30:40.178Z,1022.19
2023-04-04T07:31:39.900Z,1022.14
2023-04-04T07:32:39.870Z,1022.13
2023-04-04T07:33:39.915Z,1022.10
2023-04-04T07:34:39.843Z,1022.10
2023-04-04T07:35:39.860Z,1022.15
2023-04-04T07:36:39.887Z,1022.10
2023-04-04T07:37:39.816Z,1022.22
2023-04-04T07:38:39.838Z,1022.17
2023-04-04T07:39:39.804Z,1022.15
2023-04-04T07:40:40.015Z,1022.17
2023-04-04T07:41:39.806Z,1022.15
2023-04-04T07:42:39.754Z,1022.12
2023-04-04T07:43:39.743Z,1022.12
2023-04-04T07:44:39.721Z,1022.12
2023-04-04T07:45:39.732Z,1022.15
2023-04-04T07:46:39.772Z,1022.20
2023-04-04T07:47:39.732Z,1022.15
2023-04-04T07:48:39.675Z,1022.10
2023-04-04T07:49:39.665Z,1022.12
2023-04-04T07:50:39.995Z,1022.10
2023-04-04T07:51:39.652Z,1022.11
2023-04-04T07:52:39.634Z,1022.11
2023-04-04T07:53:39.615Z,1022.15
2023-04-04T07:54:39.643Z,1022.12
2023-04-04T07:55:39.618Z,1022.07
2023-04-04T07:56:39.615Z,1021.99
2023-04-04T07:57:39.610Z,1022.02
2023-04-04T07:58:39.579Z,1022.06
2023-04-04T07:59:39.559Z,1022.10
2023-04-04T08:00:39.804Z,1022.07
2023-04-04T08:01:39.584Z,1022.03
2023-04-04T08:02:39.694Z,1022.06
2023-04-04T08:03:39.610Z,1022.07
2023-04-04T08:04:39.531Z,1022.08
2023-04-04T08:05:39.505Z,1022.03
2023-04-04T08:06:39.510Z,1022.02
2023-04-04T08:07:39.468Z,1021.99
2023-04-04T08:08:39.456Z,1021.99
2023-04-04T08:09:39.447Z,1021.98
2023-04-04T08:10:39.642Z,1021.98
2023-04-04T08:11:39.529Z,1021.99
2023-04-04T08:12:39.424Z,1022.03
2023-04-04T08:13:39.416Z,1022.00
2023-04-04T08:14:39.427Z,1021.98
2023-04-04T08:15:39.423Z,1022.00
2023-04-04T08:16:39.393Z,1022.00
2023-04-04T08:17:39.377Z,1021.94
2023-04-04T08:18:39.362Z,1021.96
2023-04-04T08:19:39.383Z,1021.94
2023-04-04T08:20:39.496Z,1021.89
2023-04-04T08:21:39.360Z,1021.95
2023-04-04T08:22:39.317Z,1021.87
2023-04-04T08:23:39.313Z,1021.86
2023-04-04T08:24:39.289Z,1021.86
2023-04-04T08:25:39.362Z,1021.85
2023-04-04T08:26:39.278Z,1021.87
2023-04-04T08:27:39.259Z,1021.85
2023-04-04T08:28:39.267Z,1021.84
2023-04-04T08:29:39.242Z,1021.86
2023-04-04T08:30:39.398Z,1021.84
2023-04-04T08:31:39.257Z,1021.86
2023-04-04T08:32:39.267Z,1021.86
2023-04-04T08:33:47.176Z,1021.85
2023-04-04T08:34:40.339Z,1021.84
2023-04-04T08:35:39.266Z,1021.89
2023-04-04T08:36:39.155Z,1021.88
2023-04-04T08:37:39.144Z,1021.89
2023-04-04T08:38:39.132Z,1021.86
2023-04-04T08:39:39.136Z,1021.82
2023-04-04T08:40:39.301Z,1021.86
2023-04-04T08:41:39.111Z,1021.85
2023-04-04T08:42:39.102Z,1021.79
2023-04-04T08:43:39.082Z,1021.74
2023-04-04T08:44:39.078Z,1021.74
2023-04-04T08:45:39.074Z,1021.65
2023-04-04T08:46:39.114Z,1021.61
2023-04-04T08:47:39.067Z,1021.63
2023-04-04T08:48:39.069Z,1021.61
2023-04-04T08:49:39.041Z,1021.65
2023-04-04T08:50:39.270Z,1021.60
2023-04-04T08:51:39.056Z,1021.60
2023-04-04T08:52:38.988Z,1021.60
2023-04-04T08:53:39.014Z,1021.58
2023-04-04T08:54:38.971Z,1021.58
2023-04-04T08:55:38.961Z,1021.59
2023-04-04T08:56:38.963Z,1021.61
2023-04-04T08:57:38.952Z,1021.59
2023-04-04T08:58:39.014Z,1021.64
2023-04-04T08:59:39.066Z,1021.60
2023-04-04T09:00:39.185Z,1021.61
2023-04-04T09:01:39.031Z,1021.61
2023-04-04T09:02:38.956Z,1021.55
2023-04-04T09:03:38.871Z,1021.54
2023-04-04T09:04:38.923Z,1021.52
2023-04-04T09:05:38.888Z,1021.61
2023-04-04T09:06:38.853Z,1021.59
2023-04-04T09:07:39.846Z,1021.57
2023-04-04T09:08:38.836Z,1021.64
2023-04-04T09:09:38.832Z,1021.63
2023-04-04T09:10:38.945Z,1021.60
2023-04-04T09:11:38.824Z,1021.61
2023-04-04T09:12:38.781Z,1021.60
2023-04-04T09:13:40.296Z,1021.63
2023-04-04T09:14:38.764Z,1021.64
2023-04-04T09:15:38.752Z,1021.62
2023-04-04T09:16:38.803Z,1021.54
2023-04-04T09:17:38.775Z,1021.55
2023-04-04T09:18:38.781Z,1021.52
2023-04-04T09:19:38.798Z,1021.50
2023-04-04T09:20:38.997Z,1021.54
2023-04-04T09:21:38.689Z,1021.52
2023-04-04T09:22:38.696Z,1021.50
2023-04-04T09:23:38.660Z,1021.52
2023-04-04T09:24:38.662Z,1021.51
2023-04-04T09:25:38.677Z,1021.52
2023-04-04T09:26:38.806Z,1021.49
2023-04-04T09:27:38.623Z,1021.49
2023-04-04T09:28:38.625Z,1021.53
2023-04-04T09:29:38.608Z,1021.52
2023-04-04T09:30:38.907Z,1021.60
2023-04-04T09:31:38.754Z,1021.62
2023-04-04T09:32:38.696Z,1021.61
2023-04-04T09:33:38.562Z,1021.57
2023-04-04T09:34:38.568Z,1021.57
2023-04-04T09:35:38.566Z,1021.57
2023-04-04T09:36:38.589Z,1021.63
2023-04-04T09:37:38.575Z,1021.50
2023-04-04T09:38:38.524Z,1021.49
2023-04-04T09:39:38.489Z,1021.47
2023-04-04T09:40:38.725Z,1021.52
2023-04-04T09:41:38.493Z,1021.52
2023-04-04T09:42:38.506Z,1021.49
2023-04-04T09:43:38.459Z,1021.55
2023-04-04T09:44:38.440Z,1021.54
2023-04-04T09:45:38.431Z,1021.58
2023-04-04T09:46:38.575Z,1021.54
2023-04-04T09:47:38.470Z,1021.54
2023-04-04T09:48:38.397Z,1021.48
2023-04-04T09:49:38.376Z,1021.55
2023-04-04T09:50:38.634Z,1021.51
2023-04-04T09:51:38.358Z,1021.52
2023-04-04T09:52:38.378Z,1021.52
2023-04-04T09:53:38.361Z,1021.53
2023-04-04T09:54:47.838Z,1021.49
2023-04-04T09:55:39.447Z,1021.50
2023-04-04T09:56:38.351Z,1021.45
2023-04-04T09:57:38.293Z,1021.47
2023-04-04T09:58:42.328Z,1021.49
2023-04-04T09:59:39.321Z,1021.50
2023-04-04T10:00:38.575Z,1021.55
2023-04-04T10:01:38.330Z,1021.51
2023-04-04T10:02:38.271Z,1021.47
2023-04-04T10:03:38.308Z,1021.47
2023-04-04T10:04:38.316Z,1021.52
2023-04-04T10:05:38.217Z,1021.41
2023-04-04T10:06:38.235Z,1021.43
2023-04-04T10:07:38.195Z,1021.45
2023-04-04T10:08:38.235Z,1021.46
2023-04-04T10:09:38.176Z,1021.44
2023-04-04T10:10:38.430Z,1021.37
2023-04-04T10:11:38.174Z,1021.40
2023-04-04T10:12:38.161Z,1021.35
2023-04-04T10:13:38.131Z,1021.33
2023-04-04T10:14:38.132Z,1021.29
2023-04-04T10:15:38.156Z,1021.34
2023-04-04T10:16:38.701Z,1021.31
2023-04-04T10:17:38.175Z,1021.35
2023-04-04T10:18:38.128Z,1021.25
2023-04-04T10:19:38.085Z,1021.23
2023-04-04T10:20:38.244Z,1021.21
2023-04-04T10:21:38.069Z,1021.23
2023-04-04T10:22:38.054Z,1021.18
2023-04-04T10:23:38.082Z,1021.17
2023-04-04T10:24:38.022Z,1021.17
2023-04-04T10:25:38.010Z,1021.18
2023-04-04T10:26:38.030Z,1021.17
2023-04-04T10:27:38.057Z,1021.18
2023-04-04T10:28:37.979Z,1021.14
2023-04-04T10:29:37.975Z,1021.11
2023-04-04T10:30:38.314Z,1021.08
2023-04-04T10:31:37.984Z,1021.09
2023-04-04T10:32:37.991Z,1021.10
2023-04-04T10:33:37.934Z,1021.12
2023-04-04T10:34:37.929Z,1021.13
2023-04-04T10:35:37.938Z,1021.14
2023-04-04T10:36:37.904Z,1021.14
2023-04-04T10:37:37.944Z,1021.17
2023-04-04T10:38:37.937Z,1021.10
2023-04-04T10:39:37.883Z,1021.06
2023-04-04T10:40:38.189Z,1021.06
2023-04-04T10:41:37.888Z,1021.07
2023-04-04T10:42:37.844Z,1021.04
2023-04-04T10:43:37.820Z,1020.98
2023-04-04T10:44:37.850Z,1020.98
2023-04-04T10:45:37.845Z,1020.96
2023-04-04T10:46:37.898Z,1020.93
2023-04-04T10:47:37.845Z,1020.94
2023-04-04T10:48:37.902Z,1020.92
2023-04-04T10:49:37.762Z,1020.87
2023-04-04T10:50:37.754Z,1020.93
2023-04-04T10:51:48.868Z,1020.88
2023-04-04T10:52:38.767Z,1020.85
2023-04-04T10:53:37.713Z,1020.86
2023-04-04T10:54:37.731Z,1020.89
2023-04-04T10:55:38.115Z,1020.84
2023-04-04T10:56:37.689Z,1020.83
2023-04-04T10:57:37.732Z,1020.85
2023-04-04T10:58:37.685Z,1020.80
2023-04-04T10:59:37.776Z,1020.81
2023-04-04T11:00:37.721Z,1020.82
2023-04-04T11:01:37.650Z,1020.80
2023-04-04T11:02:37.717Z,1020.80
2023-04-04T11:03:37.637Z,1020.80
2023-04-04T11:04:37.979Z,1020.78
2023-04-04T11:05:37.733Z,1020.70
2023-04-04T11:06:37.645Z,1020.71
2023-04-04T11:07:37.642Z,1020.72
2023-04-04T11:08:37.653Z,1020.68
2023-04-04T11:09:37.562Z,1020.69
2023-04-04T11:10:37.677Z,1020.71
2023-04-04T11:11:38.195Z,1020.65
2023-04-04T11:12:37.556Z,1020.60
2023-04-04T11:13:37.586Z,1020.62
2023-04-04T11:14:37.496Z,1020.61
2023-04-04T11:15:37.637Z,1020.60
2023-04-04T11:16:37.533Z,1020.61
2023-04-04T11:17:37.554Z,1020.59
2023-04-04T11:18:37.827Z,1020.57
2023-04-04T11:19:37.484Z,1020.58
2023-04-04T11:20:37.523Z,1020.55
2023-04-04T11:21:37.452Z,1020.55
2023-04-04T11:22:37.425Z,1020.53
2023-04-04T11:23:37.539Z,1020.45
2023-04-04T11:24:37.405Z,1020.44
2023-04-04T11:25:37.750Z,1020.46
2023-04-04T11:26:37.457Z,1020.44
2023-04-04T11:27:37.401Z,1020.46
2023-04-04T11:28:37.417Z,1020.46
2023-04-04T11:29:37.374Z,1020.47
2023-04-04T11:30:37.343Z,1020.45
2023-04-04T11:31:37.448Z,1020.41
2023-04-04T11:32:37.352Z,1020.37
2023-04-04T11:33:37.394Z,1020.40
2023-04-04T11:34:37.336Z,1020.35
2023-04-04T11:35:37.480Z,1020.33
2023-04-04T11:36:37.337Z,1020.34
2023-04-04T11:37:37.571Z,1020.34
2023-04-04T11:38:37.246Z,1020.36
2023-04-04T11:39:37.240Z,1020.33
2023-04-04T11:40:37.386Z,1020.40
2023-04-04T11:41:37.260Z,1020.37
2023-04-04T11:42:37.218Z,1020.37
2023-04-04T11:43:37.204Z,1020.41
2023-04-04T11:44:37.224Z,1020.37
2023-04-04T11:45:37.354Z,1020.38
2023-04-04T11:46:37.256Z,1020.35
2023-04-04T11:47:37.260Z,1020.29
2023-04-04T11:48:37.154Z,1020.31
2023-04-04T11:49:37.150Z,1020.30
2023-04-04T11:50:37.156Z,1020.27
2023-04-04T11:51:37.115Z,1020.25
2023-04-04T11:52:37.122Z,1020.26
2023-04-04T11:53:37.143Z,1020.20
2023-04-04T11:54:37.101Z,1020.14
2023-04-04T11:55:37.235Z,1020.15
2023-04-04T11:56:37.108Z,1020.12
2023-04-04T11:57:37.365Z,1020.11
2023-04-04T11:58:37.085Z,1020.13
2023-04-04T11:59:37.116Z,1020.11
2023-04-04T12:00:37.398Z,1020.09
2023-04-04T12:01:37.271Z,1020.11
2023-04-04T12:02:37.340Z,1020.13
2023-04-04T12:03:37.331Z,1020.16
2023-04-04T12:04:38.266Z,1020.14
2023-04-04T12:05:37.401Z,1020.11
2023-04-04T12:06:37.004Z,1020.03
2023-04-04T12:07:37.000Z,1020.11
2023-04-04T12:08:37.003Z,1020.12
2023-04-04T12:09:36.937Z,1020.11
2023-04-04T12:10:36.944Z,1020.00
2023-04-04T12:11:36.939Z,1020.01
2023-04-04T12:12:36.942Z,1019.99
2023-04-04T12:13:36.947Z,1019.97
2023-04-04T12:14:36.940Z,1019.97
2023-04-04T12:15:37.270Z,1019.92
2023-04-04T12:16:36.978Z,1019.92
2023-04-04T12:17:36.986Z,1019.92
2023-04-04T12:18:37.004Z,1019.87
2023-04-04T12:19:38.312Z,1019.88
2023-04-04T12:20:36.974Z,1019.90
2023-04-04T12:21:36.915Z,1019.83
2023-04-04T12:22:36.853Z,1019.77
2023-04-04T12:23:36.891Z,1019.80
2023-04-04T12:24:36.799Z,1019.78
2023-04-04T12:25:36.886Z,1019.81
2023-04-04T12:26:36.806Z,1019.71
2023-04-04T12:27:36.895Z,1019.78
2023-04-04T12:28:36.776Z,1019.78
2023-04-04T12:29:36.732Z,1019.71
2023-04-04T12:30:36.725Z,1019.72
2023-04-04T12:31:36.853Z,1019.70
2023-04-04T12:32:36.784Z,1019.70
2023-04-04T12:33:36.767Z,1019.66
2023-04-04T12:34:36.732Z,1019.74
2023-04-04T12:35:36.801Z,1019.69
2023-04-04T12:36:36.677Z,1019.65
2023-04-04T12:37:36.668Z,1019.69
2023-04-04T12:38:36.679Z,1019.66
2023-04-04T12:39:36.655Z,1019.66
2023-04-04T12:40:36.682Z,1019.72
2023-04-04T12:41:36.647Z,1019.66
2023-04-04T12:42:36.600Z,1019.62
2023-04-04T12:43:36.603Z,1019.59
2023-04-04T12:44:36.583Z,1019.57
2023-04-04T12:45:36.758Z,1019.60
2023-04-04T12:46:36.592Z,1019.58
2023-04-04T12:47:36.608Z,1019.56
2023-04-04T12:48:36.546Z,1019.55
2023-04-04T12:49:36.534Z,1019.55
2023-04-04T12:50:36.573Z,1019.55
2023-04-04T12:51:36.526Z,1019.51
2023-04-04T12:52:36.497Z,1019.50
2023-04-04T12:53:36.528Z,1019.50
2023-04-04T12:54:36.469Z,1019.51
2023-04-04T12:55:36.481Z,1019.46
2023-04-04T12:56:36.453Z,1019.45
2023-04-04T12:57:36.452Z,1019.46
2023-04-04T12:58:37.639Z,1019.41
2023-04-04T12:59:36.508Z,1019.42
2023-04-04T13:00:36.409Z,1019.39
2023-04-04T13:01:36.401Z,1019.41
2023-04-04T13:02:36.483Z,1019.38
2023-04-04T13:03:36.428Z,1019.38
2023-04-04T13:04:36.407Z,1019.34
2023-04-04T13:05:36.360Z,1019.36
2023-04-04T13:06:36.383Z,1019.33
2023-04-04T13:07:36.348Z,1019.30
2023-04-04T13:08:36.383Z,1019.28
2023-04-04T13:09:37.056Z,1019.28
2023-04-04T13:10:36.303Z,1019.21
2023-04-04T13:11:36.295Z,1019.18
2023-04-04T13:12:36.306Z,1019.12
2023-04-04T13:13:36.366Z,1019.10
2023-04-04T13:14:36.297Z,1019.12
2023-04-04T13:15:36.275Z,1019.07
2023-04-04T13:16:36.271Z,1019.07
2023-04-04T13:17:36.311Z,1019.06
2023-04-04T13:18:36.238Z,1019.09
2023-04-04T13:19:36.251Z,1019.08
2023-04-04T13:20:36.281Z,1019.06
2023-04-04T13:21:36.228Z,1019.00
2023-04-04T13:22:36.190Z,1019.01
2023-04-04T13:23:36.289Z,1018.96
2023-04-04T13:24:36.210Z,1018.97
2023-04-04T13:25:36.183Z,1018.94
2023-04-04T13:26:36.143Z,1018.98
2023-04-04T13:27:36.167Z,1018.97
2023-04-04T13:28:36.138Z,1019.00
2023-04-04T13:29:36.245Z,1018.96
2023-04-04T13:30:36.153Z,1018.94
2023-04-04T13:31:36.144Z,1018.92
2023-04-04T13:32:36.131Z,1018.93
2023-04-04T13:33:36.107Z,1018.91
2023-04-04T13:34:36.256Z,1018.92
2023-04-04T13:35:36.059Z,1018.83
2023-04-04T13:36:36.158Z,1018.81
2023-04-04T13:37:36.072Z,1018.84
2023-04-04T13:38:36.064Z,1018.82
2023-04-04T13:39:36.123Z,1018.81
2023-04-04T13:40:36.042Z,1018.80
2023-04-04T13:41:36.028Z,1018.76
2023-04-04T13:42:36.124Z,1018.79
2023-04-04T13:43:35.992Z,1018.78
2023-04-04T13:44:36.055Z,1018.74
2023-04-04T13:45:35.963Z,1018.80
2023-04-04T13:46:36.017Z,1018.75
2023-04-04T13:47:36.019Z,1018.74
2023-04-04T13:48:35.981Z,1018.73
2023-04-04T13:49:36.003Z,1018.74
2023-04-04T13:50:35.930Z,1018.73
2023-04-04T13:51:35.920Z,1018.69
2023-04-04T13:52:35.922Z,1018.68
2023-04-04T13:53:35.897Z,1018.65
2023-04-04T13:54:35.885Z,1018.64
2023-04-04T13:55:35.873Z,1018.67
2023-04-04T13:56:35.868Z,1018.61
2023-04-04T13:57:35.894Z,1018.60
2023-04-04T13:58:35.892Z,1018.62
2023-04-04T13:59:35.886Z,1018.59
2023-04-04T14:00:35.844Z,1018.57
2023-04-04T14:01:35.852Z,1018.54
2023-04-04T14:02:35.835Z,1018.58
2023-04-04T14:03:35.801Z,1018.57
2023-04-04T14:04:35.838Z,1018.56
2023-04-04T14:05:35.757Z,1018.57
2023-04-04T14:06:35.750Z,1018.54
2023-04-04T14:07:35.725Z,1018.55
2023-04-04T14:08:35.728Z,1018.54
2023-04-04T14:09:35.704Z,1018.52
2023-04-04T14:10:35.709Z,1018.51
2023-04-04T14:11:35.727Z,1018.48
2023-04-04T14:12:35.687Z,1018.48
2023-04-04T14:13:35.697Z,1018.41
2023-04-04T14:14:37.732Z,1018.41
2023-04-04T14:15:35.788Z,1018.39
2023-04-04T14:16:35.733Z,1018.36
2023-04-04T14:17:35.713Z,1018.35
2023-04-04T14:18:35.665Z,1018.33
2023-04-04T14:19:35.632Z,1018.36
2023-04-04T14:20:35.614Z,1018.35
2023-04-04T14:21:35.593Z,1018.32
2023-04-04T14:22:35.586Z,1018.24
2023-04-04T14:23:35.588Z,1018.26
2023-04-04T14:24:35.544Z,1018.26
2023-04-04T14:25:35.544Z,1018.29
2023-04-04T14:26:35.540Z,1018.30
2023-04-04T14:27:35.516Z,1018.25
2023-04-04T14:28:35.518Z,1018.08
2023-04-04T14:29:35.529Z,1018.07
2023-04-04T14:30:35.488Z,1018.01
2023-04-04T14:31:35.611Z,1018.00
2023-04-04T14:32:35.490Z,1017.94
2023-04-04T14:33:35.469Z,1017.94
2023-04-04T14:34:35.444Z,1017.97
2023-04-04T14:35:35.434Z,1017.89
2023-04-04T14:36:35.432Z,1017.88
2023-04-04T14:37:35.411Z,1017.86
2023-04-04T14:38:35.413Z,1017.81
2023-04-04T14:39:35.392Z,1017.79
2023-04-04T14:40:35.394Z,1017.79
2023-04-04T14:41:35.367Z,1017.79
2023-04-04T14:42:35.361Z,1017.76
2023-04-04T14:43:35.355Z,1017.80
2023-04-04T14:44:35.428Z,1017.83
2023-04-04T14:45:35.368Z,1017.84
2023-04-04T14:46:35.339Z,1017.76
2023-04-04T14:47:35.362Z,1017.74
2023-04-04T14:48:35.310Z,1017.74
2023-04-04T14:49:35.287Z,1017.70
2023-04-04T14:50:35.267Z,1017.72
2023-04-04T14:51:35.257Z,1017.72
2023-04-04T14:52:35.243Z,1017.77
2023-04-04T14:53:35.250Z,1017.74
2023-04-04T14:54:35.216Z,1017.73
2023-04-04T14:55:35.224Z,1017.70
2023-04-04T14:56:35.211Z,1017.68
2023-04-04T14:57:39.233Z,1017.63
2023-04-04T14:58:36.197Z,1017.63
2023-04-04T14:59:35.200Z,1017.61
2023-04-04T15:00:35.164Z,1017.62
2023-04-04T15:01:35.199Z,1017.59
2023-04-04T15:02:35.155Z,1017.59
2023-04-04T15:03:35.156Z,1017.61
2023-04-04T15:04:35.144Z,1017.56
2023-04-04T15:05:35.137Z,1017.59
2023-04-04T15:06:35.168Z,1017.53
2023-04-04T15:07:35.115Z,1017.49
2023-04-04T15:08:35.096Z,1017.51
2023-04-04T15:09:35.062Z,1017.53
2023-04-04T15:10:35.085Z,1017.56
2023-04-04T15:11:35.043Z,1017.53
2023-04-04T15:12:35.032Z,1017.59
2023-04-04T15:13:35.047Z,1017.55
2023-04-04T15:14:35.032Z,1017.54
2023-04-04T15:15:35.005Z,1017.53
2023-04-04T15:16:35.152Z,1017.51
2023-04-04T15:17:34.987Z,1017.52
2023-04-04T15:18:35.011Z,1017.53
2023-04-04T15:19:34.972Z,1017.54
2023-04-04T15:20:34.939Z,1017.59
2023-04-04T15:21:34.927Z,1017.58
2023-04-04T15:22:34.931Z,1017.59
2023-04-04T15:23:34.952Z,1017.58
2023-04-04T15:24:34.905Z,1017.57
2023-04-04T15:25:34.909Z,1017.60
2023-04-04T15:26:34.953Z,1017.61
2023-04-04T15:27:34.936Z,1017.59
2023-04-04T15:28:34.909Z,1017.58
2023-04-04T15:29:34.852Z,1017.57
2023-04-04T15:30:34.830Z,1017.50
2023-04-04T15:31:34.922Z,1017.49
2023-04-04T15:32:34.830Z,1017.47
2023-04-04T15:33:34.820Z,1017.48
2023-04-04T15:34:34.796Z,1017.43
2023-04-04T15:35:34.791Z,1017.49
2023-04-04T15:36:34.849Z,1017.45
2023-04-04T15:37:34.769Z,1017.50
2023-04-04T15:38:34.758Z,1017.45
2023-04-04T15:39:39.778Z,1017.45
2023-04-04T15:40:35.726Z,1017.44
2023-04-04T15:41:34.714Z,1017.41
2023-04-04T15:42:34.692Z,1017.38
2023-04-04T15:43:34.721Z,1017.40
2023-04-04T15:44:34.674Z,1017.36
2023-04-04T15:45:34.730Z,1017.36
2023-04-04T15:46:34.654Z,1017.36
2023-04-04T15:47:34.674Z,1017.38
2023-04-04T15:48:34.649Z,1017.39
2023-04-04T15:49:34.633Z,1017.39
2023-04-04T15:50:34.610Z,1017.36
2023-04-04T15:51:34.599Z,1017.41
2023-04-04T15:52:34.602Z,1017.40
2023-04-04T15:53:34.615Z,1017.40
2023-04-04T15:54:34.571Z,1017.36
2023-04-04T15:55:34.591Z,1017.38
2023-04-04T15:56:34.581Z,1017.37
2023-04-04T15:57:34.549Z,1017.36
2023-04-04T15:58:34.589Z,1017.37
2023-04-04T15:59:34.535Z,1017.32
2023-04-04T16:00:34.517Z,1017.31
2023-04-04T16:01:34.652Z,1017.35
2023-04-04T16:02:34.754Z,1017.31
2023-04-04T16:03:34.526Z,1017.36
2023-04-04T16:04:34.464Z,1017.41
2023-04-04T16:05:34.456Z,1017.36
2023-04-04T16:06:35.543Z,1017.30
2023-04-04T16:07:34.440Z,1017.38
2023-04-04T16:08:34.437Z,1017.34
2023-04-04T16:09:34.411Z,1017.38
2023-04-04T16:10:34.402Z,1017.33
2023-04-04T16:11:34.449Z,1017.34
2023-04-04T16:12:34.372Z,1017.34
2023-04-04T16:13:34.407Z,1017.33
2023-04-04T16:14:34.360Z,1017.31
2023-04-04T16:15:34.369Z,1017.30
2023-04-04T16:16:34.358Z,1017.31
2023-04-04T16:17:34.347Z,1017.38
2023-04-04T16:18:34.337Z,1017.35
2023-04-04T16:19:34.342Z,1017.34
2023-04-04T16:20:34.289Z,1017.39
2023-04-04T16:21:34.303Z,1017.38
2023-04-04T16:22:34.291Z,1017.39
2023-04-04T16:23:34.283Z,1017.35
2023-04-04T16:24:34.245Z,1017.35
2023-04-04T16:25:34.247Z,1017.30
2023-04-04T16:26:34.221Z,1017.30
2023-04-04T16:27:34.212Z,1017.31
2023-04-04T16:28:34.243Z,1017.32
2023-04-04T16:29:34.235Z,1017.33
2023-04-04T16:30:34.184Z,1017.28
2023-04-04T16:31:34.211Z,1017.29
2023-04-04T16:32:34.183Z,1017.28
2023-04-04T16:33:34.160Z,1017.25
2023-04-04T16:34:34.511Z,1017.25
2023-04-04T16:35:34.171Z,1017.25
2023-04-04T16:36:34.172Z,1017.29
2023-04-04T16:37:34.137Z,1017.30
2023-04-04T16:38:34.131Z,1017.29
2023-04-04T16:39:34.109Z,1017.29
2023-04-04T16:40:34.069Z,1017.27
2023-04-04T16:41:34.066Z,1017.29
2023-04-04T16:42:34.052Z,1017.31
2023-04-04T16:43:34.057Z,1017.27
2023-04-04T16:44:34.028Z,1017.28
2023-04-04T16:45:34.068Z,1017.23
2023-04-04T16:46:34.050Z,1017.26
2023-04-04T16:47:34.019Z,1017.27
2023-04-04T16:48:34.010Z,1017.28
2023-04-04T16:49:33.978Z,1017.28
2023-04-04T16:50:33.979Z,1017.27
2023-04-04T16:51:33.996Z,1017.25
2023-04-04T16:52:33.940Z,1017.24
2023-04-04T16:53:33.943Z,1017.21
2023-04-04T16:54:33.931Z,1017.24
2023-04-04T16:55:33.930Z,1017.22
2023-04-04T16:56:33.955Z,1017.18
2023-04-04T16:57:33.981Z,1017.16
2023-04-04T16:58:33.912Z,1017.15
2023-04-04T16:59:33.914Z,1017.21
2023-04-04T17:00:33.857Z,1017.20
2023-04-04T17:01:33.970Z,1017.23
2023-04-04T17:02:33.868Z,1017.17
2023-04-04T17:03:33.887Z,1017.17
2023-04-04T17:04:33.821Z,1017.17
2023-04-04T17:05:33.862Z,1017.20
2023-04-04T17:06:33.810Z,1017.18
2023-04-04T17:07:33.812Z,1017.17
2023-04-04T17:08:33.785Z,1017.12
2023-04-04T17:09:33.779Z,1017.11
2023-04-04T17:10:33.761Z,1017.11